Osgood, Indiana
Current Conditions -  °F | °C
As of 8:15 PM on Tuesday 21 Oct 2014 (Local Time) from KI67 Reporting Station
Overcast Overcast  
Wind Chill: 50°   Ceiling: 6000
Heat Index: 50°   Visibility: 10mi
Dew Point: 43°   Wind: 3mph
Humidity: 76%   Direction: 40°NE
Pressure: 30.14"   Gusts: NA
Location:  39.13°N, 85.29°W
Report Text: KI67 220015Z AUTO 04003KT 10SM SCT038 SCT049 OVC060 10/06 A3014 RMK AO1
Loading
Personal Weather Stations






























Interactive Weather Map
Tropical Storm Tracking
New forecast layout! Learn more

10-Day Weather Forecast

Advertisements
Track Severe Weather on mobile